createdAt,value
2019-02-20T00:00:02.570Z,8.41
2019-02-20T00:00:28.705Z,8.48
2019-02-20T00:00:54.812Z,8.44
2019-02-20T00:01:20.954Z,8.37
2019-02-20T00:01:47.078Z,8.38
2019-02-20T00:02:13.203Z,8.36
2019-02-20T00:02:39.340Z,8.38
2019-02-20T00:03:05.472Z,8.34
2019-02-20T00:03:32.565Z,8.3
2019-02-20T00:03:58.700Z,8.36
2019-02-20T00:04:24.828Z,8.33
2019-02-20T00:04:50.942Z,8.3
2019-02-20T00:05:17.043Z,8.27
2019-02-20T00:05:43.155Z,8.3
2019-02-20T00:06:09.301Z,8.31
2019-02-20T00:06:35.456Z,8.31
2019-02-20T00:07:01.583Z,8.34
2019-02-20T00:07:27.692Z,8.44
2019-02-20T00:07:53.796Z,8.37
2019-02-20T00:08:19.934Z,8.34
2019-02-20T00:08:46.103Z,8.36
2019-02-20T00:09:12.236Z,8.37
2019-02-20T00:09:38.397Z,8.36
2019-02-20T00:10:04.506Z,8.37
2019-02-20T00:10:30.610Z,8.42
2019-02-20T00:10:56.719Z,8.42
2019-02-20T00:11:22.828Z,8.36
2019-02-20T00:11:48.990Z,8.3
2019-02-20T00:12:15.087Z,8.37
2019-02-20T00:12:41.196Z,8.37
2019-02-20T00:13:07.357Z,8.28
2019-02-20T00:13:33.463Z,8.28
2019-02-20T00:13:59.568Z,8.31
2019-02-20T00:14:25.696Z,8.34
2019-02-20T00:14:51.798Z,8.34
2019-02-20T00:15:17.909Z,8.34
2019-02-20T00:15:44.020Z,8.3
2019-02-20T00:16:10.150Z,8.3
2019-02-20T00:16:36.277Z,8.3
2019-02-20T00:17:02.378Z,8.31
2019-02-20T00:17:28.494Z,8.33
2019-02-20T00:17:54.629Z,8.31
2019-02-20T00:18:20.766Z,8.3
2019-02-20T00:18:46.898Z,8.31
2019-02-20T00:19:13.004Z,8.34
2019-02-20T00:19:40.133Z,8.27
2019-02-20T00:20:06.237Z,8.28
2019-02-20T00:20:32.346Z,8.3
2019-02-20T00:20:58.482Z,8.3
2019-02-20T00:21:24.610Z,8.3
2019-02-20T00:21:50.714Z,8.33
2019-02-20T00:22:16.829Z,8.3
2019-02-20T00:22:43.956Z,8.37
2019-02-20T00:23:10.088Z,8.31
2019-02-20T00:23:36.189Z,8.37
2019-02-20T00:24:02.326Z,8.31
2019-02-20T00:24:28.435Z,8.33
2019-02-20T00:24:54.537Z,8.37
2019-02-20T00:25:20.677Z,8.34
2019-02-20T00:25:46.781Z,8.34
2019-02-20T00:26:12.943Z,8.33
2019-02-20T00:26:39.078Z,8.3
2019-02-20T00:27:05.223Z,8.3
2019-02-20T00:27:31.353Z,8.33
2019-02-20T00:27:57.487Z,8.3
2019-02-20T00:28:23.590Z,8.3
2019-02-20T00:28:49.777Z,8.28
2019-02-20T00:29:15.912Z,8.3
2019-02-20T00:29:42.016Z,8.28
2019-02-20T00:30:08.150Z,8.34
2019-02-20T00:30:34.317Z,8.28
2019-02-20T00:31:00.409Z,8.33
2019-02-20T00:31:26.512Z,8.3
2019-02-20T00:31:52.646Z,8.3
2019-02-20T00:32:18.851Z,8.31
2019-02-20T00:32:44.941Z,8.3
2019-02-20T00:33:11.069Z,8.27
2019-02-20T00:33:37.210Z,8.28
2019-02-20T00:34:03.360Z,8.26
2019-02-20T00:34:29.414Z,8.24
2019-02-20T00:34:55.525Z,8.19
2019-02-20T00:35:21.626Z,8.24
2019-02-20T00:35:47.727Z,8.23
2019-02-20T00:36:13.887Z,8.16
2019-02-20T00:36:40.057Z,8.23
2019-02-20T00:37:06.157Z,8.15
2019-02-20T00:37:32.294Z,8.23
2019-02-20T00:37:58.487Z,8.2
2019-02-20T00:38:24.680Z,8.13
2019-02-20T00:38:50.780Z,8.15
2019-02-20T00:39:16.928Z,8.13
2019-02-20T00:39:43.053Z,8.16
2019-02-20T00:40:09.202Z,8.15
2019-02-20T00:40:35.326Z,8.15
2019-02-20T00:41:01.461Z,8.16
2019-02-20T00:41:27.572Z,8.16
2019-02-20T00:41:53.671Z,8.15
2019-02-20T00:42:19.772Z,8.1
2019-02-20T00:42:45.879Z,8.1
2019-02-20T00:43:11.986Z,8.13
2019-02-20T00:43:38.095Z,8.13
2019-02-20T00:44:04.198Z,8.13
2019-02-20T00:44:30.303Z,8.06
2019-02-20T00:44:56.412Z,8.1
2019-02-20T00:45:22.570Z,8.08
2019-02-20T00:45:48.669Z,7.98
2019-02-20T00:46:14.771Z,8
2019-02-20T00:46:40.876Z,8.03
2019-02-20T00:47:06.977Z,8.03
2019-02-20T00:47:33.117Z,8.09
2019-02-20T00:47:59.224Z,8.06
2019-02-20T00:48:25.357Z,8.01
2019-02-20T00:48:51.464Z,7.95
2019-02-20T00:49:17.577Z,7.91
2019-02-20T00:49:43.699Z,7.95
2019-02-20T00:50:09.804Z,8
2019-02-20T00:50:35.962Z,7.95
2019-02-20T00:51:02.105Z,7.93
2019-02-20T00:51:28.205Z,7.97
2019-02-20T00:51:54.341Z,7.97
2019-02-20T00:52:20.445Z,7.95
2019-02-20T00:52:49.755Z,8.01
2019-02-20T00:53:14.631Z,7.98
2019-02-20T00:53:40.742Z,8.03
2019-02-20T00:54:09.116Z,8
2019-02-20T00:54:34.024Z,8.08
2019-02-20T00:55:00.372Z,7.98
2019-02-20T00:55:26.325Z,8.01
2019-02-20T00:55:52.458Z,8.01
2019-02-20T00:56:18.586Z,8
2019-02-20T00:56:44.692Z,7.93
2019-02-20T00:57:10.825Z,7.98
2019-02-20T00:57:36.934Z,8.08
2019-02-20T00:58:03.048Z,8
2019-02-20T00:58:29.148Z,8
2019-02-20T00:58:55.247Z,7.93
2019-02-20T00:59:21.407Z,7.97
2019-02-20T00:59:47.511Z,8
2019-02-20T01:00:13.639Z,7.97
2019-02-20T01:00:39.768Z,8.05
2019-02-20T01:01:05.872Z,7.97
2019-02-20T01:01:31.980Z,7.91
2019-02-20T01:01:58.087Z,8
2019-02-20T01:02:24.222Z,7.95
2019-02-20T01:02:50.324Z,7.97
2019-02-20T01:03:16.442Z,8.05
2019-02-20T01:03:42.562Z,7.97
2019-02-20T01:04:08.669Z,7.98
2019-02-20T01:04:34.772Z,7.95
2019-02-20T01:05:00.880Z,7.95
2019-02-20T01:05:27.009Z,7.95
2019-02-20T01:05:53.139Z,7.97
2019-02-20T01:06:20.239Z,8.03
2019-02-20T01:06:46.347Z,7.97
2019-02-20T01:07:12.449Z,7.98
2019-02-20T01:07:38.561Z,8.01
2019-02-20T01:08:04.694Z,7.97
2019-02-20T01:08:30.799Z,7.91
2019-02-20T01:08:56.906Z,8
2019-02-20T01:09:23.005Z,7.95
2019-02-20T01:09:49.115Z,7.95
2019-02-20T01:10:15.246Z,7.95
2019-02-20T01:10:41.382Z,7.94
2019-02-20T01:11:07.512Z,8
2019-02-20T01:11:34.640Z,8.01
2019-02-20T01:12:00.745Z,7.95
2019-02-20T01:12:26.857Z,8.05
2019-02-20T01:12:52.958Z,8
2019-02-20T01:13:19.070Z,7.94
2019-02-20T01:13:45.197Z,7.98
2019-02-20T01:14:11.308Z,7.97
2019-02-20T01:14:37.413Z,8.03
2019-02-20T01:15:03.523Z,7.97
2019-02-20T01:15:29.688Z,7.95
2019-02-20T01:15:55.796Z,7.94
2019-02-20T01:16:21.928Z,7.98
2019-02-20T01:16:48.033Z,7.97
2019-02-20T01:17:14.138Z,7.97
2019-02-20T01:17:40.244Z,7.98
2019-02-20T01:18:06.412Z,8.05
2019-02-20T01:18:32.545Z,8.03
2019-02-20T01:18:58.675Z,8.03
2019-02-20T01:19:24.821Z,8.03
2019-02-20T01:19:50.913Z,7.98
2019-02-20T01:20:17.028Z,8.01
2019-02-20T01:20:43.152Z,8
2019-02-20T01:21:09.310Z,8
2019-02-20T01:21:35.449Z,8.08
2019-02-20T01:22:01.582Z,8.1
2019-02-20T01:22:27.675Z,8.15
2019-02-20T01:22:59.589Z,8.13
2019-02-20T01:23:20.902Z,8.1
2019-02-20T01:23:47.007Z,8.1
2019-02-20T01:24:13.114Z,8.13
2019-02-20T01:24:39.216Z,8.06
2019-02-20T01:25:05.405Z,8.13
2019-02-20T01:25:31.537Z,8.08
2019-02-20T01:25:57.646Z,8.09
2019-02-20T01:26:23.756Z,8.1
2019-02-20T01:26:49.894Z,8.15
2019-02-20T01:27:16.044Z,8.15
2019-02-20T01:27:42.185Z,8.13
2019-02-20T01:28:08.318Z,8.13
2019-02-20T01:28:34.436Z,8.2
2019-02-20T01:29:00.588Z,8.16
2019-02-20T01:29:26.703Z,8.13
2019-02-20T01:29:52.830Z,8.16
2019-02-20T01:30:18.933Z,8.18
2019-02-20T01:30:45.035Z,8.16
2019-02-20T01:31:11.148Z,8.23
2019-02-20T01:31:37.286Z,8.15
2019-02-20T01:32:03.392Z,8.16
2019-02-20T01:32:29.526Z,8.16
2019-02-20T01:32:55.659Z,8.1
2019-02-20T01:33:21.848Z,8.12
2019-02-20T01:33:51.675Z,8.15
2019-02-20T01:34:17.774Z,8.1
2019-02-20T01:34:43.879Z,8.18
2019-02-20T01:35:09.979Z,8.2
2019-02-20T01:35:36.116Z,8.13
2019-02-20T01:36:02.258Z,8.18
2019-02-20T01:36:28.362Z,8.18
2019-02-20T01:36:54.468Z,8.19
2019-02-20T01:37:20.575Z,8.15
2019-02-20T01:37:46.687Z,8.15
2019-02-20T01:38:12.815Z,8.19
2019-02-20T01:38:38.942Z,8.26
2019-02-20T01:39:05.076Z,8.2
2019-02-20T01:39:31.211Z,8.24
2019-02-20T01:39:57.319Z,8.19
2019-02-20T01:40:23.466Z,8.18
2019-02-20T01:40:49.628Z,8.3
2019-02-20T01:41:15.733Z,8.23
2019-02-20T01:41:41.870Z,8.27
2019-02-20T01:42:08.004Z,8.2
2019-02-20T01:42:34.137Z,8.27
2019-02-20T01:43:00.241Z,8.28
2019-02-20T01:43:26.355Z,8.18
2019-02-20T01:43:52.512Z,8.19
2019-02-20T01:44:18.699Z,8.18
2019-02-20T01:44:44.806Z,8.2
2019-02-20T01:45:10.926Z,8.27
2019-02-20T01:45:37.081Z,8.2
2019-02-20T01:46:03.211Z,8.28
2019-02-20T01:46:29.308Z,8.23
2019-02-20T01:46:55.451Z,8.26
2019-02-20T01:47:21.589Z,8.16
2019-02-20T01:47:47.767Z,8.24
2019-02-20T01:48:13.870Z,8.27
2019-02-20T01:48:40.016Z,8.27
2019-02-20T01:49:06.151Z,8.23
2019-02-20T01:49:32.258Z,8.18
2019-02-20T01:49:58.371Z,8.16
2019-02-20T01:50:24.507Z,8.28
2019-02-20T01:50:50.626Z,8.26
2019-02-20T01:51:16.744Z,8.28
2019-02-20T01:51:42.860Z,8.28
2019-02-20T01:52:08.970Z,8.28
2019-02-20T01:52:35.070Z,8.24
2019-02-20T01:53:09.969Z,8.2
2019-02-20T01:53:28.312Z,8.27
2019-02-20T01:53:54.419Z,8.27
2019-02-20T01:54:20.584Z,8.3
2019-02-20T01:54:46.765Z,8.3
2019-02-20T01:55:12.876Z,8.31
2019-02-20T01:55:39.003Z,8.37
2019-02-20T01:56:05.106Z,8.31
2019-02-20T01:56:31.209Z,8.31
2019-02-20T01:56:57.347Z,8.3
2019-02-20T01:57:23.449Z,8.3
2019-02-20T01:57:49.559Z,8.33
2019-02-20T01:58:15.662Z,8.3
2019-02-20T01:58:41.765Z,8.3
2019-02-20T01:59:07.867Z,8.33
2019-02-20T01:59:33.984Z,8.28
2019-02-20T02:00:00.094Z,8.27
2019-02-20T02:00:26.258Z,8.28
2019-02-20T02:00:52.396Z,8.26
2019-02-20T02:01:18.533Z,8.24
2019-02-20T02:01:44.638Z,8.3
2019-02-20T02:02:10.772Z,8.27
2019-02-20T02:02:36.933Z,8.28
2019-02-20T02:03:03.035Z,8.33
2019-02-20T02:03:29.141Z,8.28
2019-02-20T02:03:55.246Z,8.3
2019-02-20T02:04:21.374Z,8.37
2019-02-20T02:04:47.482Z,8.31
2019-02-20T02:05:15.566Z,8.37
2019-02-20T02:05:40.784Z,8.34
2019-02-20T02:06:06.905Z,8.38
2019-02-20T02:06:33.037Z,8.37
2019-02-20T02:06:59.171Z,8.44
2019-02-20T02:07:25.298Z,8.38
2019-02-20T02:07:51.450Z,8.31
2019-02-20T02:08:17.504Z,8.37
2019-02-20T02:08:43.619Z,8.38
2019-02-20T02:09:09.753Z,8.33
2019-02-20T02:09:35.914Z,8.37
2019-02-20T02:10:02.020Z,8.36
2019-02-20T02:10:28.153Z,8.38
2019-02-20T02:10:54.306Z,8.41
2019-02-20T02:11:20.412Z,8.44
2019-02-20T02:11:46.521Z,8.42
2019-02-20T02:12:12.626Z,8.34
2019-02-20T02:12:38.781Z,8.38
2019-02-20T02:13:04.920Z,8.38
2019-02-20T02:13:31.057Z,8.38
2019-02-20T02:13:57.179Z,8.38
2019-02-20T02:14:23.290Z,8.36
2019-02-20T02:14:49.439Z,8.44
2019-02-20T02:15:20.402Z,8.42
2019-02-20T02:15:42.642Z,8.38
2019-02-20T02:16:08.782Z,8.41
2019-02-20T02:16:34.883Z,8.37
2019-02-20T02:17:00.989Z,8.38
2019-02-20T02:17:27.197Z,8.44
2019-02-20T02:17:53.252Z,8.44
2019-02-20T02:18:19.355Z,8.45
2019-02-20T02:18:45.512Z,8.49
2019-02-20T02:19:11.622Z,8.41
2019-02-20T02:19:37.733Z,8.41
2019-02-20T02:20:03.836Z,8.46
2019-02-20T02:20:29.937Z,8.41
2019-02-20T02:20:56.075Z,8.44
2019-02-20T02:21:22.181Z,8.33
2019-02-20T02:21:48.315Z,8.38
2019-02-20T02:22:14.416Z,8.38
2019-02-20T02:22:40.592Z,8.37
2019-02-20T02:23:06.728Z,8.36
2019-02-20T02:23:34.843Z,8.36
2019-02-20T02:24:01.933Z,8.38
2019-02-20T02:24:28.115Z,8.41
2019-02-20T02:24:54.250Z,8.34
2019-02-20T02:25:20.385Z,8.31
2019-02-20T02:25:46.549Z,8.38
2019-02-20T02:26:14.631Z,8.38
2019-02-20T02:26:40.769Z,8.41
2019-02-20T02:27:06.873Z,8.34
2019-02-20T02:27:33.004Z,8.34
2019-02-20T02:27:59.112Z,8.37
2019-02-20T02:28:25.246Z,8.33
2019-02-20T02:28:51.381Z,8.41
2019-02-20T02:29:17.488Z,8.36
2019-02-20T02:29:43.594Z,8.38
2019-02-20T02:30:09.737Z,8.38
2019-02-20T02:30:35.897Z,8.42
2019-02-20T02:31:02.070Z,8.42
2019-02-20T02:31:28.246Z,8.38
2019-02-20T02:31:54.360Z,8.37
2019-02-20T02:32:20.488Z,8.36
2019-02-20T02:32:46.590Z,8.31
2019-02-20T02:33:12.731Z,8.38
2019-02-20T02:33:38.826Z,8.33
2019-02-20T02:34:04.965Z,8.37
2019-02-20T02:34:31.088Z,8.41
2019-02-20T02:34:57.200Z,8.36
2019-02-20T02:35:23.301Z,8.42
2019-02-20T02:35:49.409Z,8.38
2019-02-20T02:36:15.550Z,8.38
2019-02-20T02:36:41.653Z,8.46
2019-02-20T02:37:07.786Z,8.44
2019-02-20T02:37:33.887Z,8.45
2019-02-20T02:37:59.990Z,8.38
2019-02-20T02:38:26.130Z,8.37
2019-02-20T02:38:52.256Z,8.37
2019-02-20T02:39:18.375Z,8.41
2019-02-20T02:39:44.538Z,8.36
2019-02-20T02:40:10.689Z,8.38
2019-02-20T02:40:36.822Z,8.42
2019-02-20T02:41:02.954Z,8.36
2019-02-20T02:41:29.094Z,8.42
2019-02-20T02:41:55.222Z,8.36
2019-02-20T02:42:21.359Z,8.37
2019-02-20T02:42:47.477Z,8.33
2019-02-20T02:43:13.588Z,8.3
2019-02-20T02:43:39.710Z,8.38
2019-02-20T02:44:05.840Z,8.36
2019-02-20T02:44:32.022Z,8.33
2019-02-20T02:44:58.157Z,8.37
2019-02-20T02:45:24.286Z,8.37
2019-02-20T02:45:50.412Z,8.36
2019-02-20T02:46:16.519Z,8.36
2019-02-20T02:46:42.652Z,8.33
2019-02-20T02:47:08.818Z,8.36
2019-02-20T02:47:34.954Z,8.34
2019-02-20T02:48:01.094Z,8.37
2019-02-20T02:48:27.255Z,8.3
2019-02-20T02:48:53.389Z,8.31
2019-02-20T02:49:19.489Z,8.37
2019-02-20T02:49:45.604Z,8.31
2019-02-20T02:50:11.712Z,8.34
2019-02-20T02:50:37.840Z,8.37
2019-02-20T02:51:03.975Z,8.36
2019-02-20T02:51:30.130Z,8.36
2019-02-20T02:51:56.234Z,8.37
2019-02-20T02:52:22.400Z,8.36
2019-02-20T02:52:48.510Z,8.37
2019-02-20T02:53:14.610Z,8.38
2019-02-20T02:53:42.701Z,8.33
2019-02-20T02:54:08.856Z,8.34
2019-02-20T02:54:34.992Z,8.42
2019-02-20T02:55:01.094Z,8.34
2019-02-20T02:55:27.199Z,8.3
2019-02-20T02:55:53.305Z,8.34
2019-02-20T02:56:19.441Z,8.31
2019-02-20T02:56:45.542Z,8.33
2019-02-20T02:57:11.647Z,8.28
2019-02-20T02:57:37.756Z,8.31
2019-02-20T02:58:03.891Z,8.33
2019-02-20T02:58:29.994Z,8.3
2019-02-20T02:58:56.095Z,8.31
2019-02-20T02:59:22.210Z,8.31
2019-02-20T02:59:48.340Z,8.34
2019-02-20T03:00:14.460Z,8.38
2019-02-20T03:00:40.562Z,8.3
2019-02-20T03:01:06.666Z,8.31
2019-02-20T03:01:32.763Z,8.33
2019-02-20T03:01:58.914Z,8.34
2019-02-20T03:02:25.016Z,8.31
2019-02-20T03:02:51.191Z,8.34
2019-02-20T03:03:17.279Z,8.36
2019-02-20T03:03:43.388Z,8.36
2019-02-20T03:04:09.524Z,8.44
2019-02-20T03:04:35.625Z,8.38
2019-02-20T03:05:01.737Z,8.38
2019-02-20T03:05:27.863Z,8.38
2019-02-20T03:05:53.985Z,8.38
2019-02-20T03:06:20.157Z,8.38
2019-02-20T03:06:46.287Z,8.44
2019-02-20T03:07:12.394Z,8.48
2019-02-20T03:07:38.574Z,8.34
2019-02-20T03:08:04.722Z,8.45
2019-02-20T03:08:30.892Z,8.33
2019-02-20T03:08:57.006Z,8.34
2019-02-20T03:09:23.137Z,8.44
2019-02-20T03:09:49.248Z,8.48
2019-02-20T03:10:15.415Z,8.37
2019-02-20T03:10:41.529Z,8.38
2019-02-20T03:11:07.658Z,8.42
2019-02-20T03:11:33.768Z,8.45
2019-02-20T03:11:59.878Z,8.48
2019-02-20T03:12:25.986Z,8.41
2019-02-20T03:12:52.123Z,8.49
2019-02-20T03:13:18.247Z,8.46
2019-02-20T03:13:44.389Z,8.41
2019-02-20T03:14:10.541Z,8.46
2019-02-20T03:14:36.652Z,8.45
2019-02-20T03:15:02.756Z,8.46
2019-02-20T03:15:28.875Z,8.42
2019-02-20T03:15:55.009Z,8.48
2019-02-20T03:16:21.129Z,8.51
2019-02-20T03:16:47.253Z,8.41
2019-02-20T03:17:13.365Z,8.44
2019-02-20T03:17:39.472Z,8.46
2019-02-20T03:18:05.632Z,8.38
2019-02-20T03:18:31.737Z,8.38
2019-02-20T03:18:57.864Z,8.38
2019-02-20T03:19:24.031Z,8.34
2019-02-20T03:19:50.145Z,8.38
2019-02-20T03:20:16.299Z,8.36
2019-02-20T03:20:42.432Z,8.36
2019-02-20T03:21:08.591Z,8.37
2019-02-20T03:21:34.701Z,8.37
2019-02-20T03:22:00.833Z,8.38
2019-02-20T03:22:26.939Z,8.38
2019-02-20T03:22:53.070Z,8.31
2019-02-20T03:23:19.178Z,8.38
2019-02-20T03:23:46.333Z,8.33
2019-02-20T03:24:12.491Z,8.37
2019-02-20T03:24:38.624Z,8.38
2019-02-20T03:25:04.790Z,8.41
2019-02-20T03:25:30.917Z,8.44
2019-02-20T03:25:57.029Z,8.37
2019-02-20T03:26:23.125Z,8.44
2019-02-20T03:26:49.260Z,8.41
2019-02-20T03:27:15.363Z,8.38
2019-02-20T03:27:41.498Z,8.42
2019-02-20T03:28:07.640Z,8.36
2019-02-20T03:28:33.743Z,8.37
2019-02-20T03:29:00.837Z,8.45
2019-02-20T03:29:26.948Z,8.42
2019-02-20T03:29:53.093Z,8.44
2019-02-20T03:30:19.192Z,8.46
2019-02-20T03:30:45.305Z,8.46
2019-02-20T03:31:11.403Z,8.52
2019-02-20T03:31:37.512Z,8.38
2019-02-20T03:32:03.685Z,8.44
2019-02-20T03:32:29.841Z,8.49
2019-02-20T03:32:56.024Z,8.49
2019-02-20T03:33:22.151Z,8.44
2019-02-20T03:33:48.256Z,8.51
2019-02-20T03:34:14.403Z,8.51
2019-02-20T03:34:40.532Z,8.48
2019-02-20T03:35:06.633Z,8.45
2019-02-20T03:35:32.737Z,8.48
2019-02-20T03:35:58.840Z,8.46
2019-02-20T03:36:24.962Z,8.51
2019-02-20T03:36:51.058Z,8.49
2019-02-20T03:37:17.191Z,8.51
2019-02-20T03:37:43.300Z,8.51
2019-02-20T03:38:09.440Z,8.42
2019-02-20T03:38:36.554Z,8.41
2019-02-20T03:39:02.681Z,8.56
2019-02-20T03:39:28.795Z,8.53
2019-02-20T03:39:54.981Z,8.55
2019-02-20T03:40:21.209Z,8.53
2019-02-20T03:40:47.381Z,8.58
2019-02-20T03:41:13.504Z,8.66
2019-02-20T03:41:39.606Z,8.66
2019-02-20T03:42:05.715Z,8.69
2019-02-20T03:42:31.884Z,8.64
2019-02-20T03:42:58.029Z,8.63
2019-02-20T03:43:24.156Z,8.61
2019-02-20T03:43:50.289Z,8.56
2019-02-20T03:44:16.428Z,8.6
2019-02-20T03:44:42.535Z,8.63
2019-02-20T03:45:08.649Z,8.63
2019-02-20T03:45:34.747Z,8.55
2019-02-20T03:46:00.863Z,8.63
2019-02-20T03:46:27.000Z,8.6
2019-02-20T03:46:53.134Z,8.52
2019-02-20T03:47:20.227Z,8.66
2019-02-20T03:47:46.443Z,8.64
2019-02-20T03:48:12.566Z,8.6
2019-02-20T03:48:38.704Z,8.66
2019-02-20T03:49:04.803Z,8.63
2019-02-20T03:49:30.908Z,8.56
2019-02-20T03:49:57.039Z,8.63
2019-02-20T03:50:23.143Z,8.64
2019-02-20T03:50:49.305Z,8.63
2019-02-20T03:51:15.413Z,8.66
2019-02-20T03:51:41.516Z,8.7
2019-02-20T03:52:07.616Z,8.67
2019-02-20T03:52:33.750Z,8.63
2019-02-20T03:52:59.864Z,8.6
2019-02-20T03:53:25.997Z,8.66
2019-02-20T03:53:54.080Z,8.66
2019-02-20T03:54:20.215Z,8.58
2019-02-20T03:54:46.448Z,8.61
2019-02-20T03:55:12.585Z,8.66
2019-02-20T03:55:38.696Z,8.63
2019-02-20T03:56:04.805Z,8.52
2019-02-20T03:56:30.934Z,8.52
2019-02-20T03:56:57.069Z,8.53
2019-02-20T03:57:23.206Z,8.64
2019-02-20T03:57:49.341Z,8.53
2019-02-20T03:58:15.531Z,8.55
2019-02-20T03:58:42.622Z,8.51
2019-02-20T03:59:08.727Z,8.53
2019-02-20T03:59:34.832Z,8.52
2019-02-20T04:00:00.986Z,8.58
2019-02-20T04:00:27.102Z,8.53
2019-02-20T04:00:53.203Z,8.55
2019-02-20T04:01:19.313Z,8.61
2019-02-20T04:01:45.449Z,8.56
2019-02-20T04:02:11.554Z,8.51
2019-02-20T04:02:37.695Z,8.56
2019-02-20T04:03:03.827Z,8.53
2019-02-20T04:03:29.930Z,8.51
2019-02-20T04:03:56.062Z,8.45
2019-02-20T04:04:22.170Z,8.51
2019-02-20T04:04:48.302Z,8.51
2019-02-20T04:05:14.411Z,8.55
2019-02-20T04:05:40.513Z,8.53
2019-02-20T04:06:06.621Z,8.44
2019-02-20T04:06:32.729Z,8.48
2019-02-20T04:06:58.854Z,8.56
2019-02-20T04:07:24.987Z,8.46
2019-02-20T04:07:51.121Z,8.42
2019-02-20T04:08:17.221Z,8.46
2019-02-20T04:08:43.342Z,8.56
2019-02-20T04:09:09.466Z,8.58
2019-02-20T04:09:35.605Z,8.49
2019-02-20T04:10:01.746Z,8.52
2019-02-20T04:10:27.886Z,8.64
2019-02-20T04:10:54.030Z,8.56
2019-02-20T04:11:20.133Z,8.53
2019-02-20T04:11:46.266Z,8.66
2019-02-20T04:12:12.387Z,8.55
2019-02-20T04:12:38.528Z,8.52
2019-02-20T04:13:04.653Z,8.44
2019-02-20T04:13:30.765Z,8.46
2019-02-20T04:13:56.890Z,8.49
2019-02-20T04:14:23.003Z,8.58
2019-02-20T04:14:49.114Z,8.42
2019-02-20T04:15:15.276Z,8.56
2019-02-20T04:15:41.382Z,8.45
2019-02-20T04:16:07.518Z,8.44
2019-02-20T04:16:33.685Z,8.52
2019-02-20T04:16:59.781Z,8.53
2019-02-20T04:17:25.889Z,8.48
2019-02-20T04:17:51.996Z,8.53
2019-02-20T04:18:18.114Z,8.45
2019-02-20T04:18:44.252Z,8.45
2019-02-20T04:19:10.382Z,8.51
2019-02-20T04:19:36.490Z,8.48
2019-02-20T04:20:02.591Z,8.46
2019-02-20T04:20:28.735Z,8.46
2019-02-20T04:20:54.834Z,8.42
2019-02-20T04:21:20.981Z,8.45
2019-02-20T04:21:47.086Z,8.44
2019-02-20T04:22:13.197Z,8.51
2019-02-20T04:22:39.337Z,8.49
2019-02-20T04:23:05.468Z,8.45
2019-02-20T04:23:31.569Z,8.46
2019-02-20T04:24:02.151Z,8.44
2019-02-20T04:24:25.786Z,8.42
2019-02-20T04:24:51.894Z,8.42
2019-02-20T04:25:18.039Z,8.46
2019-02-20T04:25:44.140Z,8.41
2019-02-20T04:26:10.249Z,8.48
2019-02-20T04:26:36.351Z,8.42
2019-02-20T04:27:02.457Z,8.37
2019-02-20T04:27:28.567Z,8.37
2019-02-20T04:27:54.668Z,8.41
2019-02-20T04:28:20.808Z,8.42
2019-02-20T04:28:46.911Z,8.49
2019-02-20T04:29:13.016Z,8.48
2019-02-20T04:29:39.181Z,8.38
2019-02-20T04:30:05.556Z,8.38
2019-02-20T04:30:31.662Z,8.51
2019-02-20T04:30:57.768Z,8.45
2019-02-20T04:31:23.867Z,8.53
2019-02-20T04:31:50.002Z,8.42
2019-02-20T04:32:16.141Z,8.52
2019-02-20T04:32:42.239Z,8.56
2019-02-20T04:33:09.019Z,8.6
2019-02-20T04:33:35.129Z,8.55
2019-02-20T04:34:01.262Z,8.52
2019-02-20T04:34:27.369Z,8.55
2019-02-20T04:34:53.478Z,8.53
2019-02-20T04:35:19.584Z,8.53
2019-02-20T04:35:45.682Z,8.55
2019-02-20T04:36:11.788Z,8.55
2019-02-20T04:36:37.922Z,8.55
2019-02-20T04:37:04.031Z,8.53
2019-02-20T04:37:30.162Z,8.55
2019-02-20T04:37:56.298Z,8.52
2019-02-20T04:38:22.426Z,8.61
2019-02-20T04:38:48.529Z,8.61
2019-02-20T04:39:14.644Z,8.61
2019-02-20T04:39:40.770Z,8.67
2019-02-20T04:40:06.887Z,8.64
2019-02-20T04:40:33.010Z,8.63
2019-02-20T04:40:59.162Z,8.67
2019-02-20T04:41:25.292Z,8.61
2019-02-20T04:41:51.454Z,8.64
2019-02-20T04:42:17.560Z,8.64
2019-02-20T04:42:43.692Z,8.61
2019-02-20T04:43:09.800Z,8.67
2019-02-20T04:43:35.906Z,8.61
2019-02-20T04:44:02.060Z,8.61
2019-02-20T04:44:28.217Z,8.61
2019-02-20T04:44:54.352Z,8.66
2019-02-20T04:45:20.488Z,8.66
2019-02-20T04:45:46.656Z,8.64
2019-02-20T04:46:12.789Z,8.69
2019-02-20T04:46:38.891Z,8.64
2019-02-20T04:47:05.022Z,8.78
2019-02-20T04:47:31.157Z,8.76
2019-02-20T04:47:57.266Z,8.71
2019-02-20T04:48:23.397Z,8.64
2019-02-20T04:48:49.528Z,8.79
2019-02-20T04:49:15.661Z,8.74
2019-02-20T04:49:41.780Z,8.71
2019-02-20T04:50:07.949Z,8.7
2019-02-20T04:50:34.156Z,8.69
2019-02-20T04:51:00.352Z,8.61
2019-02-20T04:51:26.461Z,8.56
2019-02-20T04:51:52.568Z,8.69
2019-02-20T04:52:18.686Z,8.66
2019-02-20T04:52:44.818Z,8.64
2019-02-20T04:53:10.926Z,8.67
2019-02-20T04:53:37.052Z,8.64
2019-02-20T04:54:12.611Z,8.67
2019-02-20T04:54:31.280Z,8.61
2019-02-20T04:54:57.386Z,8.63
2019-02-20T04:55:23.496Z,8.61
2019-02-20T04:55:49.629Z,8.61
2019-02-20T04:56:15.767Z,8.53
2019-02-20T04:56:41.867Z,8.53
2019-02-20T04:57:07.972Z,8.52
2019-02-20T04:57:34.131Z,8.53
2019-02-20T04:58:00.236Z,8.52
2019-02-20T04:58:26.398Z,8.61
2019-02-20T04:58:52.541Z,8.63
2019-02-20T04:59:18.668Z,8.63
2019-02-20T04:59:44.776Z,8.69
2019-02-20T05:00:11.038Z,8.63
2019-02-20T05:00:37.146Z,8.66
2019-02-20T05:01:03.256Z,8.61
2019-02-20T05:01:29.361Z,8.6
2019-02-20T05:01:55.507Z,8.63
2019-02-20T05:02:21.628Z,8.67
2019-02-20T05:02:47.773Z,8.61
2019-02-20T05:03:13.873Z,8.63
2019-02-20T05:03:40.015Z,8.61
2019-02-20T05:04:06.114Z,8.66
2019-02-20T05:04:32.222Z,8.6
2019-02-20T05:04:58.358Z,8.64
2019-02-20T05:05:24.463Z,8.6
2019-02-20T05:05:50.572Z,8.61
2019-02-20T05:06:16.681Z,8.6
2019-02-20T05:06:42.789Z,8.67
2019-02-20T05:07:08.935Z,8.61
2019-02-20T05:07:35.078Z,8.67
2019-02-20T05:08:01.199Z,8.66
2019-02-20T05:08:27.337Z,8.61
2019-02-20T05:08:53.497Z,8.6
2019-02-20T05:09:19.637Z,8.56
2019-02-20T05:09:45.763Z,8.58
2019-02-20T05:10:11.957Z,8.52
2019-02-20T05:10:38.068Z,8.53
2019-02-20T05:11:04.196Z,8.56
2019-02-20T05:11:30.297Z,8.52
2019-02-20T05:11:56.436Z,8.48
2019-02-20T05:12:22.577Z,8.49
2019-02-20T05:12:48.681Z,8.48
2019-02-20T05:13:14.839Z,8.51
2019-02-20T05:13:40.956Z,8.42
2019-02-20T05:14:07.056Z,8.49
2019-02-20T05:14:33.163Z,8.41
2019-02-20T05:14:59.308Z,8.44
2019-02-20T05:15:25.460Z,8.51
2019-02-20T05:15:51.586Z,8.48
2019-02-20T05:16:17.713Z,8.38
2019-02-20T05:16:43.843Z,8.49
2019-02-20T05:17:09.987Z,8.45
2019-02-20T05:17:36.091Z,8.48
2019-02-20T05:18:02.210Z,8.49
2019-02-20T05:18:28.308Z,8.37
2019-02-20T05:18:54.432Z,8.37
2019-02-20T05:19:20.545Z,8.41
2019-02-20T05:19:46.651Z,8.37
2019-02-20T05:20:12.763Z,8.48
2019-02-20T05:20:38.941Z,8.38
2019-02-20T05:21:05.069Z,8.45
2019-02-20T05:21:31.206Z,8.48
2019-02-20T05:21:57.316Z,8.46
2019-02-20T05:22:23.443Z,8.46
2019-02-20T05:22:49.578Z,8.48
2019-02-20T05:23:15.731Z,8.37
2019-02-20T05:23:42.802Z,8.45
2019-02-20T05:24:08.963Z,8.49
2019-02-20T05:24:35.768Z,8.48
2019-02-20T05:25:01.873Z,8.46
2019-02-20T05:25:28.019Z,8.52
2019-02-20T05:25:54.155Z,8.46
2019-02-20T05:26:20.279Z,8.44
2019-02-20T05:26:46.387Z,8.46
2019-02-20T05:27:12.522Z,8.42
2019-02-20T05:27:38.668Z,8.49
2019-02-20T05:28:04.770Z,8.37
2019-02-20T05:28:30.936Z,8.44
2019-02-20T05:28:57.064Z,8.42
2019-02-20T05:29:23.199Z,8.46
2019-02-20T05:29:49.305Z,8.34
2019-02-20T05:30:15.412Z,8.37
2019-02-20T05:30:41.507Z,8.38
2019-02-20T05:31:07.645Z,8.37
2019-02-20T05:31:33.758Z,8.41
2019-02-20T05:31:59.889Z,8.38
2019-02-20T05:32:26.027Z,8.34
2019-02-20T05:32:52.156Z,8.31
2019-02-20T05:33:18.283Z,8.31
2019-02-20T05:33:44.395Z,8.31
2019-02-20T05:34:10.553Z,8.3
2019-02-20T05:34:36.677Z,8.3
2019-02-20T05:35:02.790Z,8.3
2019-02-20T05:35:28.901Z,8.27
2019-02-20T05:35:55.080Z,8.3
2019-02-20T05:36:21.186Z,8.28
2019-02-20T05:36:47.287Z,8.27
2019-02-20T05:37:13.398Z,8.26
2019-02-20T05:37:39.774Z,8.18
2019-02-20T05:38:05.886Z,8.18
2019-02-20T05:38:31.998Z,8.26
2019-02-20T05:38:58.150Z,8.27
2019-02-20T05:39:24.233Z,8.3
2019-02-20T05:39:50.733Z,8.31
2019-02-20T05:40:16.988Z,8.33
2019-02-20T05:40:43.156Z,8.27
2019-02-20T05:41:09.311Z,8.33
2019-02-20T05:41:35.427Z,8.28
2019-02-20T05:42:01.569Z,8.24
2019-02-20T05:42:27.697Z,8.23
2019-02-20T05:42:53.799Z,8.2
2019-02-20T05:43:19.966Z,8.16
2019-02-20T05:43:46.042Z,8.16
2019-02-20T05:44:12.169Z,8.27
2019-02-20T05:44:38.282Z,8.2
2019-02-20T05:45:04.383Z,8.15
2019-02-20T05:45:30.604Z,8.27
2019-02-20T05:45:56.717Z,8.19
2019-02-20T05:46:22.845Z,8.19
2019-02-20T05:46:48.952Z,8.2
2019-02-20T05:47:15.058Z,8.15
2019-02-20T05:47:41.163Z,8.28
2019-02-20T05:48:07.270Z,8.18
2019-02-20T05:48:34.759Z,8.24
2019-02-20T05:49:01.256Z,8.19
2019-02-20T05:49:27.413Z,8.3
2019-02-20T05:49:53.517Z,8.2